Time;durP1;ratioP1;P1;durP2;ratioP2;P2;SDS_P1;SDS_P2;PMS_P1;PMS_P2;Temp;Humidity;BMP_temperature;BMP_pressure;BME280_temperature;BME280_humidity;BME280_pressure;Samples;Min_cycle;Max_cycle;Signal;HPM_P1;HPM_P2
2023/06/12 00:00:43;;;;;;;;;20.20;18.60;;;;;;;;1985693;28;3559643;-82
2023/06/12 00:01:54;;;;;;;;;17.33;16.00;;;;;;;;1981000;28;3564871;-82
2023/06/12 00:03:06;;;;;;;;;22.20;19.80;;;;;;;;1961842;28;2841971;-82
2023/06/12 00:04:17;;;;;;;;;20.67;20.67;;;;;;;;1975754;28;3581443;-83
2023/06/12 00:05:28;;;;;;;;;20.60;19.20;;;;;;;;1965979;28;2837027;-84
2023/06/12 00:06:40;;;;;;;;;17.67;17.00;;;;;;;;1983681;28;3567957;-84
2023/06/12 00:07:55;;;;;;;;;19.00;17.00;;;;;;;;1976473;28;3575281;-83
2023/06/12 00:09:06;;;;;;;;;17.00;16.50;;;;;;;;1962122;28;2829480;-82
2023/06/12 00:10:17;;;;;;;;;22.00;20.00;;;;;;;;1968966;28;2842050;-84
2023/06/12 00:11:28;;;;;;;;;20.40;18.20;;;;;;;;1991695;28;3563783;-84
2023/06/12 00:12:41;;;;;;;;;20.86;18.57;;;;;;;;2005171;28;3574163;-84
2023/06/12 00:13:54;;;;;;;;;24.29;20.00;;;;;;;;1983499;28;3588833;-83
2023/06/12 00:15:05;;;;;;;;;22.00;19.00;;;;;;;;1965077;28;2834684;-83
2023/06/12 00:16:17;;;;;;;;;23.00;19.00;;;;;;;;2000702;28;3573180;-84
2023/06/12 00:17:28;;;;;;;;;21.40;18.80;;;;;;;;1969822;28;2841976;-83
2023/06/12 00:18:39;;;;;;;;;21.00;18.40;;;;;;;;1981879;28;2837839;-83
2023/06/12 00:19:51;;;;;;;;;19.14;18.14;;;;;;;;1987399;28;3577358;-83
2023/06/12 00:21:11;;;;;;;;;23.00;18.14;;;;;;;;1967760;28;3573594;-83
2023/06/12 00:22:21;;;;;;;;;21.00;16.00;;;;;;;;1941982;28;2831512;-83
2023/06/12 00:23:32;;;;;;;;;18.00;18.00;;;;;;;;1961589;28;2838912;-83
2023/06/12 00:24:43;;;;;;;;;19.33;19.00;;;;;;;;1986200;28;3560653;-83
2023/06/12 00:25:55;;;;;;;;;20.80;17.80;;;;;;;;1989206;28;3578321;-83
2023/06/12 00:27:06;;;;;;;;;19.80;18.00;;;;;;;;1971242;28;2826358;-84
2023/06/12 00:28:17;;;;;;;;;19.67;15.67;;;;;;;;1987958;28;3560637;-80
2023/06/12 00:29:28;;;;;;;;;21.60;20.60;;;;;;;;1993401;28;2834701;-80
2023/06/12 00:30:39;;;;;;;;;21.60;17.60;;;;;;;;1986008;28;3575205;-80
2023/06/12 00:31:50;;;;;;;;;20.00;17.20;;;;;;;;1993382;28;2829406;-81
2023/06/12 00:33:02;;;;;;;;;17.80;15.80;;;;;;;;2011254;28;3559585;-81
2023/06/12 00:34:14;;;;;;;;;21.00;18.00;;;;;;;;2010221;28;3573128;-81
2023/06/12 00:35:26;;;;;;;;;18.20;14.80;;;;;;;;1989416;28;3540811;-81
2023/06/12 00:36:39;;;;;;;;;11.83;11.67;;;;;;;;2023460;28;2790860;-81
2023/06/12 00:37:51;;;;;;;;;20.80;19.80;;;;;;;;1989683;28;3557517;-81
2023/06/12 00:39:03;;;;;;;;;21.20;17.20;;;;;;;;1994202;28;2833572;-81
2023/06/12 00:40:14;;;;;;;;;15.33;15.00;;;;;;;;1985567;28;3515840;-81
2023/06/12 00:41:26;;;;;;;;;24.00;21.20;;;;;;;;2005414;28;3580398;-81
2023/06/12 00:42:46;;;;;;;;;18.57;17.00;;;;;;;;1981154;28;3558614;-80
2023/06/12 00:43:56;;;;;;;;;23.00;19.00;;;;;;;;1984218;28;2839857;-80
2023/06/12 00:45:08;;;;;;;;;20.60;19.00;;;;;;;;1968644;28;2839965;-80
2023/06/12 00:46:19;;;;;;;;;20.00;18.33;;;;;;;;1985361;28;3571038;-81
2023/06/12 00:47:32;;;;;;;;;20.29;19.29;;;;;;;;1983829;28;3571066;-77
2023/06/12 00:48:43;;;;;;;;;20.20;17.60;;;;;;;;1965893;28;2844108;-78
2023/06/12 00:49:54;;;;;;;;;21.00;18.00;;;;;;;;1990444;28;2837754;-78
2023/06/12 00:51:08;;;;;;;;;20.67;18.00;;;;;;;;1982801;28;2825219;-78
2023/06/12 00:52:21;;;;;;;;;18.33;17.33;;;;;;;;1980904;28;2828359;-77
2023/06/12 00:53:33;;;;;;;;;21.33;17.00;;;;;;;;1986574;28;2836745;-77
2023/06/12 00:54:44;;;;;;;;;18.00;16.50;;;;;;;;1988802;28;2823131;-77
2023/06/12 00:55:56;;;;;;;;;21.33;18.00;;;;;;;;1972131;28;3565854;-77
2023/06/12 00:57:08;;;;;;;;;20.00;18.00;;;;;;;;1988919;28;3572459;-78
2023/06/12 00:58:19;;;;;;;;;25.40;22.80;;;;;;;;1967488;28;2843034;-77
2023/06/12 00:59:30;;;;;;;;;22.60;19.00;;;;;;;;1996583;28;3579402;-77
2023/06/12 01:00:43;;;;;;;;;18.60;17.80;;;;;;;;1989261;28;2832527;-77
2023/06/12 01:01:54;;;;;;;;;17.67;17.00;;;;;;;;1976138;28;3568995;-81
2023/06/12 01:03:06;;;;;;;;;19.40;16.80;;;;;;;;1965866;28;2831544;-80
2023/06/12 01:04:18;;;;;;;;;20.67;19.67;;;;;;;;1985663;28;2838749;-80
2023/06/12 01:05:33;;;;;;;;;20.00;17.67;;;;;;;;1982286;28;3575251;-81
2023/06/12 01:06:43;;;;;;;;;22.00;18.50;;;;;;;;1962330;28;2850272;-81
2023/06/12 01:07:57;;;;;;;;;18.80;18.40;;;;;;;;1969308;28;2839904;-81
2023/06/12 01:09:11;;;;;;;;;17.00;16.50;;;;;;;;1987915;28;2831512;-81
2023/06/12 01:10:30;;;;;;;;;20.00;19.00;;;;;;;;1961235;28;2832543;-82
2023/06/12 01:11:41;;;;;;;;;18.50;17.50;;;;;;;;1985579;28;2834712;-83
2023/06/12 01:12:53;;;;;;;;;22.00;20.00;;;;;;;;1951907;28;3577261;-84
2023/06/12 01:14:04;;;;;;;;;20.80;16.80;;;;;;;;1973918;28;3558531;-89
2023/06/12 01:15:16;;;;;;;;;16.33;14.33;;;;;;;;1989212;28;3537723;-89
2023/06/12 01:16:29;;;;;;;;;16.00;15.80;;;;;;;;1995178;28;3554380;-77
2023/06/12 01:17:41;;;;;;;;;16.33;14.67;;;;;;;;1969859;28;3538812;-77
2023/06/12 01:18:52;;;;;;;;;16.50;16.50;;;;;;;;1979152;28;2827822;-76
2023/06/12 01:20:06;;;;;;;;;18.67;15.67;;;;;;;;1959628;28;3540854;-78
2023/06/12 01:21:18;;;;;;;;;14.00;13.00;;;;;;;;1984024;28;2821080;-81
2023/06/12 01:22:30;;;;;;;;;17.00;17.00;;;;;;;;1962916;28;2832554;-82
2023/06/12 01:24:08;;;;;;;;;16.50;14.00;;;;;;;;1955252;28;2815915;-82
2023/06/12 01:25:22;;;;;;;;;20.00;17.00;;;;;;;;1953912;28;3566930;-82
2023/06/12 01:26:34;;;;;;;;;13.00;13.00;;;;;;;;1979318;28;2816926;-79
2023/06/12 01:27:50;;;;;;;;;17.00;14.50;;;;;;;;1956765;28;2793998;-81
2023/06/12 01:29:19;;;;;;;;;14.33;13.67;;;;;;;;1984651;28;2803448;-80
2023/06/12 01:30:49;;;;;;;;;13.50;13.00;;;;;;;;1980061;28;2797167;-81
2023/06/12 01:32:02;;;;;;;;;14.50;12.00;;;;;;;;1980669;28;2791974;-81
2023/06/12 01:33:17;;;;;;;;;13.50;12.50;;;;;;;;1985658;28;2790901;-81
2023/06/12 01:34:50;;;;;;;;;16.00;13.50;;;;;;;;1986190;28;2809634;-80
2023/06/12 01:36:02;;;;;;;;;15.50;12.00;;;;;;;;1957993;28;2808652;-80
2023/06/12 01:37:43;;;;;;;;;16.00;13.00;;;;;;;;1954639;28;2795104;-81
2023/06/12 01:38:58;;;;;;;;;15.00;11.50;;;;;;;;1982645;28;2796077;-80
2023/06/12 01:40:10;;;;;;;;;13.00;13.00;;;;;;;;1962238;28;2787832;-81
2023/06/12 01:41:21;;;;;;;;;14.00;12.00;;;;;;;;1984624;28;2779470;-81
2023/06/12 01:42:32;;;;;;;;;14.33;13.33;;;;;;;;1960386;28;2801253;-81
2023/06/12 01:43:44;;;;;;;;;13.00;13.00;;;;;;;;1982690;28;2799310;-81
2023/06/12 01:44:55;;;;;;;;;14.67;13.33;;;;;;;;1982310;28;3532559;-81
2023/06/12 01:46:08;;;;;;;;;16.20;12.60;;;;;;;;2011352;28;3551228;-81
2023/06/12 01:47:19;;;;;;;;;13.00;12.50;;;;;;;;1987306;28;2796077;-80
2023/06/12 01:48:30;;;;;;;;;15.00;12.50;;;;;;;;1963750;28;2805472;-80
2023/06/12 01:49:42;;;;;;;;;20.20;15.80;;;;;;;;1988410;28;3558598;-80
2023/06/12 01:50:54;;;;;;;;;20.20;18.80;;;;;;;;2000779;28;3569447;-80
2023/06/12 01:52:06;;;;;;;;;17.60;15.60;;;;;;;;2003214;28;3554386;-80
2023/06/12 01:53:17;;;;;;;;;16.60;14.80;;;;;;;;2005816;28;3511651;-80
2023/06/12 01:54:33;;;;;;;;;13.71;13.71;;;;;;;;2004280;28;3536729;-80
2023/06/12 01:55:44;;;;;;;;;16.67;15.00;;;;;;;;1983787;28;2805567;-80
2023/06/12 01:56:55;;;;;;;;;17.33;16.00;;;;;;;;1982926;28;3562740;-80
2023/06/12 01:58:08;;;;;;;;;14.60;13.20;;;;;;;;2011691;28;3534965;-78
2023/06/12 01:59:18;;;;;;;;;12.00;12.00;;;;;;;;1987085;28;2801294;-77
2023/06/12 02:00:30;;;;;;;;;19.80;15.20;;;;;;;;1990841;28;3537727;-79
2023/06/12 02:01:42;;;;;;;;;16.80;16.00;;;;;;;;1991879;28;3554415;-78
2023/06/12 02:02:56;;;;;;;;;16.57;14.43;;;;;;;;2006695;28;3548194;-78
2023/06/12 02:04:11;;;;;;;;;4.00;1.83;;;;;;;;2012596;28;2738807;-78
2023/06/12 02:05:22;;;;;;;;;17.00;16.00;;;;;;;;1958805;28;3552329;-78
2023/06/12 02:06:34;;;;;;;;;14.80;14.60;;;;;;;;2003703;28;3520366;-79
2023/06/12 02:07:46;;;;;;;;;19.40;16.00;;;;;;;;2012139;28;3559034;-79
2023/06/12 02:08:57;;;;;;;;;17.60;13.20;;;;;;;;2011360;28;3555425;-79
2023/06/12 02:10:09;;;;;;;;;16.80;14.80;;;;;;;;2011837;28;3549160;-79
2023/06/12 02:11:21;;;;;;;;;20.60;15.20;;;;;;;;2007332;28;3555438;-78
2023/06/12 02:12:33;;;;;;;;;16.60;16.60;;;;;;;;2010563;28;3555400;-78
2023/06/12 02:13:45;;;;;;;;;13.20;13.20;;;;;;;;2012396;28;3527334;-78
2023/06/12 02:14:59;;;;;;;;;17.00;13.57;;;;;;;;2006723;28;2800275;-78
2023/06/12 02:16:10;;;;;;;;;17.00;13.33;;;;;;;;1983969;28;3549208;-78
2023/06/12 02:17:23;;;;;;;;;15.57;13.29;;;;;;;;2005347;28;3520018;-78
2023/06/12 02:18:34;;;;;;;;;19.00;19.00;;;;;;;;1993357;28;3568943;-79
2023/06/12 02:19:46;;;;;;;;;17.60;16.40;;;;;;;;1987300;28;3560693;-79
2023/06/12 02:20:59;;;;;;;;;21.86;18.71;;;;;;;;1999274;28;3576235;-78
2023/06/12 02:22:11;;;;;;;;;19.80;18.60;;;;;;;;1985088;28;3572087;-78
2023/06/12 02:23:23;;;;;;;;;19.60;18.40;;;;;;;;2005951;28;3560602;-78
2023/06/12 02:24:35;;;;;;;;;19.80;17.40;;;;;;;;2010186;28;3568379;-78
2023/06/12 02:25:47;;;;;;;;;21.00;17.00;;;;;;;;1996810;28;3581477;-78
2023/06/12 02:26:59;;;;;;;;;19.80;18.00;;;;;;;;1987256;28;3559586;-78
2023/06/12 02:28:11;;;;;;;;;19.33;15.00;;;;;;;;1976302;28;3555458;-78
2023/06/12 02:29:22;;;;;;;;;15.50;15.50;;;;;;;;1985368;28;2816960;-78
2023/06/12 02:30:33;;;;;;;;;17.00;15.60;;;;;;;;2008652;28;3547471;-78
2023/06/12 02:31:46;;;;;;;;;17.00;16.20;;;;;;;;2011364;28;3549208;-78
2023/06/12 02:32:57;;;;;;;;;18.40;14.40;;;;;;;;2003524;28;3533531;-77
2023/06/12 02:34:09;;;;;;;;;17.00;14.20;;;;;;;;2011434;28;3555410;-77
2023/06/12 02:35:21;;;;;;;;;15.60;15.00;;;;;;;;2001459;28;3533544;-77
2023/06/12 02:36:40;;;;;;;;;16.20;15.80;;;;;;;;2010754;28;3537769;-77
2023/06/12 02:37:51;;;;;;;;;16.00;15.00;;;;;;;;1981097;28;2792996;-77
2023/06/12 02:39:03;;;;;;;;;17.00;14.67;;;;;;;;1981264;28;3539845;-77
2023/06/12 02:40:14;;;;;;;;;15.00;13.33;;;;;;;;1996615;28;2806610;-76
2023/06/12 02:41:25;;;;;;;;;14.00;14.00;;;;;;;;1979749;28;2805479;-77
2023/06/12 02:42:36;;;;;;;;;18.00;17.00;;;;;;;;1954316;28;2826272;-76
2023/06/12 02:43:48;;;;;;;;;15.40;13.80;;;;;;;;1990509;28;3530423;-76
2023/06/12 02:44:59;;;;;;;;;13.17;12.67;;;;;;;;2006824;28;2798200;-76
2023/06/12 02:46:11;;;;;;;;;14.20;13.40;;;;;;;;1987419;28;2780468;-77
2023/06/12 02:47:22;;;;;;;;;16.33;13.33;;;;;;;;1981723;28;3535680;-76
2023/06/12 02:48:35;;;;;;;;;16.57;14.57;;;;;;;;2006074;28;3541940;-76
2023/06/12 02:49:48;;;;;;;;;16.00;15.00;;;;;;;;2003183;28;3532508;-75
2023/06/12 02:51:00;;;;;;;;;10.60;10.00;;;;;;;;2009240;28;2775240;-78
2023/06/12 02:52:12;;;;;;;;;14.67;14.33;;;;;;;;1978181;28;2806577;-78
2023/06/12 02:53:23;;;;;;;;;21.60;16.20;;;;;;;;1936040;28;3567943;-78
2023/06/12 02:54:36;;;;;;;;;14.86;14.00;;;;;;;;1990941;28;3520034;-78
2023/06/12 02:55:49;;;;;;;;;15.20;13.80;;;;;;;;2003447;28;3526265;-81
2023/06/12 02:57:00;;;;;;;;;15.00;15.00;;;;;;;;1987163;28;2798172;-81
2023/06/12 02:58:12;;;;;;;;;15.60;13.40;;;;;;;;1989304;28;3532521;-80
2023/06/12 02:59:24;;;;;;;;;15.86;14.86;;;;;;;;2003910;28;3541892;-82
2023/06/12 03:00:36;;;;;;;;;16.80;14.00;;;;;;;;2010913;28;3536677;-82
2023/06/12 03:01:49;;;;;;;;;16.20;14.40;;;;;;;;2004451;28;3535607;-81
2023/06/12 03:03:00;;;;;;;;;16.80;14.80;;;;;;;;1990717;28;3536696;-81
2023/06/12 03:04:15;;;;;;;;;14.20;14.00;;;;;;;;2002873;28;3515836;-77
2023/06/12 03:05:25;;;;;;;;;22.00;15.50;;;;;;;;1983325;28;2824300;-77
2023/06/12 03:06:38;;;;;;;;;14.40;13.60;;;;;;;;1982256;28;3527286;-77
2023/06/12 03:07:51;;;;;;;;;21.20;16.60;;;;;;;;1995290;28;3541241;-77
2023/06/12 03:09:03;;;;;;;;;20.00;16.00;;;;;;;;1986932;28;2831513;-77
2023/06/12 03:10:14;;;;;;;;;18.33;16.00;;;;;;;;1959475;28;3553362;-77
2023/06/12 03:11:26;;;;;;;;;18.60;14.00;;;;;;;;2006673;28;3551231;-77
2023/06/12 03:12:40;;;;;;;;;17.71;15.00;;;;;;;;1999434;28;3546075;-77
2023/06/12 03:13:51;;;;;;;;;18.60;16.60;;;;;;;;1998632;28;3558551;-77
2023/06/12 03:15:04;;;;;;;;;17.67;16.00;;;;;;;;2000993;28;3555466;-77
2023/06/12 03:16:16;;;;;;;;;16.33;16.00;;;;;;;;1982852;28;3552301;-77
2023/06/12 03:17:28;;;;;;;;;17.60;17.60;;;;;;;;1997137;28;3562697;-77
2023/06/12 03:18:40;;;;;;;;;17.60;16.20;;;;;;;;2010243;28;3555429;-76
2023/06/12 03:19:51;;;;;;;;;17.80;15.00;;;;;;;;2002306;28;3540920;-76
2023/06/12 03:21:03;;;;;;;;;24.60;17.40;;;;;;;;2000166;28;3585653;-78
2023/06/12 03:22:15;;;;;;;;;16.40;16.00;;;;;;;;1988514;28;3566887;-78
2023/06/12 03:23:27;;;;;;;;;15.60;15.60;;;;;;;;2006374;28;3553322;-79
2023/06/12 03:24:39;;;;;;;;;22.00;17.40;;;;;;;;2011711;28;3566889;-79
2023/06/12 03:25:51;;;;;;;;;20.40;17.20;;;;;;;;1988332;28;3557513;-79
2023/06/12 03:27:04;;;;;;;;;13.86;13.86;;;;;;;;2006057;28;2793457;-79
2023/06/12 03:28:15;;;;;;;;;16.67;14.00;;;;;;;;1975629;28;3541911;-79
2023/06/12 03:29:27;;;;;;;;;17.00;15.40;;;;;;;;2004200;28;3547066;-79
2023/06/12 03:30:39;;;;;;;;;19.00;17.20;;;;;;;;2012049;28;3549192;-79
2023/06/12 03:31:53;;;;;;;;;17.00;15.20;;;;;;;;2011562;28;3552300;-79
2023/06/12 03:33:04;;;;;;;;;15.00;14.00;;;;;;;;1984095;28;3525191;-79
2023/06/12 03:34:16;;;;;;;;;16.60;15.60;;;;;;;;2005048;28;3551608;-81
2023/06/12 03:35:29;;;;;;;;;17.60;16.60;;;;;;;;2003047;28;3547487;-79
2023/06/12 03:36:40;;;;;;;;;18.67;15.33;;;;;;;;1973287;28;3556496;-78
2023/06/12 03:37:53;;;;;;;;;16.57;14.43;;;;;;;;2000428;28;3532917;-77
2023/06/12 03:39:07;;;;;;;;;22.60;17.00;;;;;;;;2012814;28;3579706;-79
2023/06/12 03:40:18;;;;;;;;;19.50;16.00;;;;;;;;1965783;28;2822102;-86
2023/06/12 03:41:31;;;;;;;;;16.33;16.33;;;;;;;;1958965;28;2822094;-90
2023/06/12 03:42:42;;;;;;;;;21.33;18.00;;;;;;;;1984878;28;2833564;-91
2023/06/12 03:43:52;;;;;;;;;18.50;18.00;;;;;;;;1979762;28;2833607;-90
2023/06/12 03:45:04;;;;;;;;;21.00;16.40;;;;;;;;1983479;28;3575200;-91
2023/06/12 03:46:16;;;;;;;;;19.20;17.00;;;;;;;;1975305;28;3562688;-91
2023/06/12 03:47:29;;;;;;;;;17.00;15.86;;;;;;;;1992749;28;3552317;-91
2023/06/12 03:48:41;;;;;;;;;18.80;16.00;;;;;;;;1982244;28;3547116;-90
2023/06/12 03:49:54;;;;;;;;;19.43;18.00;;;;;;;;2007423;28;3579391;-83
2023/06/12 03:51:06;;;;;;;;;17.20;14.60;;;;;;;;1971083;28;3537699;-83
2023/06/12 03:52:18;;;;;;;;;19.00;15.57;;;;;;;;2000232;28;3545114;-82
2023/06/12 03:53:31;;;;;;;;;21.60;19.60;;;;;;;;2009236;28;3577291;-83
2023/06/12 03:54:42;;;;;;;;;22.80;14.80;;;;;;;;1967187;28;3535624;-83
2023/06/12 03:55:55;;;;;;;;;20.43;19.57;;;;;;;;2008210;28;3581464;-83
2023/06/12 03:57:06;;;;;;;;;17.20;17.20;;;;;;;;1972545;28;2832556;-83
2023/06/12 03:58:17;;;;;;;;;22.00;18.50;;;;;;;;1985714;28;2831539;-83
2023/06/12 03:59:29;;;;;;;;;18.60;16.00;;;;;;;;1984027;28;3550221;-84
2023/06/12 04:00:41;;;;;;;;;17.00;15.60;;;;;;;;2008279;28;3551323;-83
2023/06/12 04:01:53;;;;;;;;;21.80;17.40;;;;;;;;1996516;28;3574179;-82
2023/06/12 04:03:08;;;;;;;;;18.80;18.00;;;;;;;;1978842;28;3561647;-86
2023/06/12 04:04:19;;;;;;;;;16.00;14.00;;;;;;;;1986878;28;2804387;-85
2023/06/12 04:05:30;;;;;;;;;21.00;18.20;;;;;;;;1973229;28;2828382;-91
2023/06/12 04:06:41;;;;;;;;;21.33;19.67;;;;;;;;1978323;28;2848163;-91
2023/06/12 04:07:51;;;;;;;;;17.00;16.00;;;;;;;;1971951;28;2826332;-92
2023/06/12 04:09:05;;;;;;;;;21.14;18.71;;;;;;;;1976344;28;3563818;-92
2023/06/12 04:10:16;;;;;;;;;15.00;14.40;;;;;;;;1963181;28;3535610;-89
2023/06/12 04:11:28;;;;;;;;;14.60;14.60;;;;;;;;2005593;28;3514767;-93
2023/06/12 04:12:40;;;;;;;;;19.00;17.00;;;;;;;;1976123;28;3575217;-92
2023/06/12 04:13:52;;;;;;;;;18.20;16.40;;;;;;;;1972858;28;3562049;-89
2023/06/12 04:15:04;;;;;;;;;16.20;15.20;;;;;;;;2006280;28;3546079;-80
2023/06/12 04:16:16;;;;;;;;;18.40;16.20;;;;;;;;1993034;28;3554364;-81
2023/06/12 04:17:29;;;;;;;;;16.57;15.57;;;;;;;;2000783;28;3538770;-80
2023/06/12 04:18:40;;;;;;;;;15.00;13.50;;;;;;;;1987976;28;2789847;-80
2023/06/12 04:19:55;;;;;;;;;13.00;11.71;;;;;;;;2008294;28;2800220;-81
2023/06/12 04:21:06;;;;;;;;;15.00;13.50;;;;;;;;1988060;28;2780476;-81
2023/06/12 04:22:17;;;;;;;;;19.00;16.00;;;;;;;;1979346;28;2826379;-79
2023/06/12 04:23:29;;;;;;;;;19.60;16.20;;;;;;;;1984698;28;3560950;-79
2023/06/12 04:24:42;;;;;;;;;19.00;15.80;;;;;;;;2003364;28;3556466;-79
2023/06/12 04:25:54;;;;;;;;;15.67;14.33;;;;;;;;1983074;28;2809720;-79
2023/06/12 04:27:08;;;;;;;;;15.67;14.00;;;;;;;;1985168;28;2799336;-81
2023/06/12 04:28:21;;;;;;;;;18.00;14.00;;;;;;;;1986446;28;2820398;-81
2023/06/12 04:29:32;;;;;;;;;16.00;15.00;;;;;;;;1963124;28;2807571;-81
2023/06/12 04:30:44;;;;;;;;;16.00;14.00;;;;;;;;1963255;28;2824253;-81
2023/06/12 04:31:57;;;;;;;;;18.33;17.67;;;;;;;;1957946;28;3557532;-81
2023/06/12 04:33:09;;;;;;;;;16.50;13.00;;;;;;;;1980331;28;2801293;-81
2023/06/12 04:34:20;;;;;;;;;17.67;16.67;;;;;;;;1985108;28;3558591;-81
2023/06/12 04:35:33;;;;;;;;;14.60;14.00;;;;;;;;2007583;28;3528775;-81
2023/06/12 04:36:45;;;;;;;;;17.00;16.00;;;;;;;;1983799;28;3566924;-82
2023/06/12 04:37:56;;;;;;;;;17.00;15.67;;;;;;;;1948840;28;3552417;-83
2023/06/12 04:39:11;;;;;;;;;17.40;17.40;;;;;;;;2001889;28;3562717;-78
2023/06/12 04:40:22;;;;;;;;;17.50;16.00;;;;;;;;1962161;28;2826312;-83
2023/06/12 04:41:33;;;;;;;;;16.33;15.00;;;;;;;;1965916;28;2805448;-85
2023/06/12 04:42:44;;;;;;;;;18.33;16.67;;;;;;;;1988348;28;2820042;-81
2023/06/12 04:44:03;;;;;;;;;22.50;18.50;;;;;;;;1987667;28;2837722;-77
2023/06/12 04:45:13;;;;;;;;;19.00;17.50;;;;;;;;1963988;28;2829492;-77
2023/06/12 04:46:28;;;;;;;;;17.29;17.29;;;;;;;;1981564;28;3558522;-80
2023/06/12 04:47:39;;;;;;;;;20.00;18.00;;;;;;;;1987717;28;2829400;-80
2023/06/12 04:48:50;;;;;;;;;22.00;16.67;;;;;;;;1982865;28;3572123;-80
2023/06/12 04:50:01;;;;;;;;;20.20;19.60;;;;;;;;1961979;28;2836755;-80
2023/06/12 04:51:13;;;;;;;;;21.60;19.20;;;;;;;;2002148;28;3581467;-81
2023/06/12 04:52:26;;;;;;;;;20.86;20.29;;;;;;;;2005588;28;3582493;-80
2023/06/12 04:53:39;;;;;;;;;20.60;20.00;;;;;;;;1969288;28;2835816;-80
2023/06/12 04:54:52;;;;;;;;;21.33;20.00;;;;;;;;1980419;28;3572175;-81
2023/06/12 04:56:05;;;;;;;;;23.00;22.67;;;;;;;;1959162;28;3578845;-81
2023/06/12 04:57:16;;;;;;;;;23.50;21.00;;;;;;;;1963588;28;2846089;-81
2023/06/12 04:58:26;;;;;;;;;26.50;20.00;;;;;;;;1963757;28;2852340;-81
2023/06/12 04:59:39;;;;;;;;;20.80;19.40;;;;;;;;1973145;28;3564844;-83
2023/06/12 05:00:50;;;;;;;;;15.67;15.00;;;;;;;;1976991;28;3547108;-81
2023/06/12 05:02:03;;;;;;;;;19.33;18.67;;;;;;;;1981874;28;3573185;-79
2023/06/12 05:03:17;;;;;;;;;20.67;20.00;;;;;;;;1958812;28;3576294;-80
2023/06/12 05:04:28;;;;;;;;;25.33;23.33;;;;;;;;1949120;28;3581466;-83
2023/06/12 05:05:39;;;;;;;;;21.40;18.00;;;;;;;;1954868;28;2835796;-83
2023/06/12 05:06:51;;;;;;;;;23.20;22.20;;;;;;;;1989301;28;2837839;-82
2023/06/12 05:08:03;;;;;;;;;20.00;19.67;;;;;;;;1980381;28;3579411;-82
2023/06/12 05:09:15;;;;;;;;;20.00;17.00;;;;;;;;1976388;28;3567972;-81
2023/06/12 05:10:27;;;;;;;;;20.80;18.60;;;;;;;;1973332;28;3575241;-81
2023/06/12 05:11:37;;;;;;;;;20.00;20.00;;;;;;;;1967305;28;2841978;-81
2023/06/12 05:12:49;;;;;;;;;21.60;19.80;;;;;;;;2006860;28;3563822;-81
2023/06/12 05:14:01;;;;;;;;;15.20;13.20;;;;;;;;2006074;28;3526276;-79
2023/06/12 05:15:12;;;;;;;;;23.80;22.40;;;;;;;;1989410;28;2849260;-76
2023/06/12 05:16:23;;;;;;;;;21.00;19.80;;;;;;;;1978537;28;3568505;-75
2023/06/12 05:17:34;;;;;;;;;22.20;21.40;;;;;;;;1978219;28;2827374;-75
2023/06/12 05:18:45;;;;;;;;;17.50;17.00;;;;;;;;1971808;28;2831476;-75
2023/06/12 05:19:57;;;;;;;;;19.00;17.80;;;;;;;;2004382;28;3561663;-76
2023/06/12 05:21:09;;;;;;;;;21.20;20.00;;;;;;;;1994814;28;3572060;-75
2023/06/12 05:22:21;;;;;;;;;20.00;18.80;;;;;;;;2012019;28;3568960;-75
2023/06/12 05:23:31;;;;;;;;;21.20;18.40;;;;;;;;1966938;28;2824217;-75
2023/06/12 05:24:44;;;;;;;;;17.57;17.43;;;;;;;;2002778;28;3556559;-77
2023/06/12 05:25:55;;;;;;;;;22.60;18.20;;;;;;;;1967262;28;2836725;-77
2023/06/12 05:27:07;;;;;;;;;20.40;18.40;;;;;;;;1988346;28;3575193;-77
2023/06/12 05:28:18;;;;;;;;;21.80;20.60;;;;;;;;1997440;28;3575237;-77
2023/06/12 05:29:30;;;;;;;;;20.20;20.00;;;;;;;;1978235;28;3573217;-77
2023/06/12 05:30:44;;;;;;;;;19.60;16.80;;;;;;;;2003415;28;3562733;-76
2023/06/12 05:31:54;;;;;;;;;17.00;15.50;;;;;;;;1959059;28;2823219;-77
2023/06/12 05:33:06;;;;;;;;;16.40;16.40;;;;;;;;1985036;28;3555449;-77
2023/06/12 05:34:18;;;;;;;;;21.60;17.40;;;;;;;;1986744;28;3565811;-77
2023/06/12 05:35:31;;;;;;;;;20.20;18.60;;;;;;;;1973308;28;3571071;-77
2023/06/12 05:36:42;;;;;;;;;17.00;15.33;;;;;;;;1951098;28;3552369;-77
2023/06/12 05:37:54;;;;;;;;;19.40;18.40;;;;;;;;2004307;28;3566899;-77
2023/06/12 05:39:06;;;;;;;;;20.40;17.40;;;;;;;;1982549;28;3567894;-77
2023/06/12 05:40:19;;;;;;;;;15.14;14.71;;;;;;;;2004813;28;3537738;-77
2023/06/12 05:41:32;;;;;;;;;21.29;18.57;;;;;;;;2006513;28;3566928;-77
2023/06/12 05:42:44;;;;;;;;;16.80;16.00;;;;;;;;2010391;28;3531622;-77
2023/06/12 05:43:56;;;;;;;;;19.57;19.00;;;;;;;;1999879;28;3577307;-77
2023/06/12 05:45:08;;;;;;;;;19.40;17.40;;;;;;;;1970671;28;2833595;-77
2023/06/12 05:46:18;;;;;;;;;22.20;18.60;;;;;;;;1987758;28;2840946;-77
2023/06/12 05:47:30;;;;;;;;;22.20;20.00;;;;;;;;2008827;28;3579368;-77
2023/06/12 05:48:43;;;;;;;;;13.57;11.00;;;;;;;;2003159;28;2788763;-77
2023/06/12 05:49:54;;;;;;;;;22.33;20.67;;;;;;;;1976765;28;3583573;-77
2023/06/12 05:51:07;;;;;;;;;20.20;19.40;;;;;;;;1967828;28;2838804;-82
2023/06/12 05:52:18;;;;;;;;;17.33;17.00;;;;;;;;1978081;28;3574170;-76
2023/06/12 05:53:32;;;;;;;;;21.86;20.29;;;;;;;;1980797;28;3587735;-77
2023/06/12 05:54:43;;;;;;;;;21.00;20.00;;;;;;;;1958770;28;3559604;-76
2023/06/12 05:55:55;;;;;;;;;20.00;19.20;;;;;;;;1984242;28;3572095;-76
2023/06/12 05:57:08;;;;;;;;;18.57;17.43;;;;;;;;1980003;28;3555541;-76
2023/06/12 05:58:21;;;;;;;;;24.80;18.80;;;;;;;;1982085;28;3567921;-76
2023/06/12 05:59:32;;;;;;;;;19.67;19.00;;;;;;;;1986597;28;2828375;-76
2023/06/12 06:00:43;;;;;;;;;19.00;19.00;;;;;;;;1980793;28;3566963;-76
2023/06/12 06:01:55;;;;;;;;;26.00;21.40;;;;;;;;1977601;28;3580420;-76
2023/06/12 06:03:07;;;;;;;;;19.00;17.33;;;;;;;;1967703;28;3567941;-76
2023/06/12 06:04:20;;;;;;;;;19.29;18.86;;;;;;;;1976332;28;3573157;-76
2023/06/12 06:05:32;;;;;;;;;20.86;18.57;;;;;;;;1974679;28;3586180;-76
2023/06/12 06:06:44;;;;;;;;;22.00;19.40;;;;;;;;1966134;28;2840277;-76
2023/06/12 06:07:55;;;;;;;;;19.00;18.00;;;;;;;;1975861;28;3571090;-76
2023/06/12 06:09:07;;;;;;;;;19.00;18.00;;;;;;;;1956365;28;3564819;-76
2023/06/12 06:10:19;;;;;;;;;19.40;16.20;;;;;;;;1965068;28;3558522;-76
2023/06/12 06:11:31;;;;;;;;;19.80;17.60;;;;;;;;1984447;28;3566844;-75
2023/06/12 06:12:42;;;;;;;;;20.60;18.00;;;;;;;;1983910;28;2829397;-75
2023/06/12 06:13:52;;;;;;;;;19.00;14.80;;;;;;;;1989307;28;2835687;-75
2023/06/12 06:15:05;;;;;;;;;20.00;18.00;;;;;;;;2001607;28;3575241;-75
2023/06/12 06:16:16;;;;;;;;;24.00;19.33;;;;;;;;1985093;28;3572119;-75
2023/06/12 06:17:27;;;;;;;;;22.60;19.00;;;;;;;;1964776;28;2837304;-75
2023/06/12 06:18:39;;;;;;;;;21.00;19.00;;;;;;;;1975254;28;2833540;-75
2023/06/12 06:19:50;;;;;;;;;17.67;17.00;;;;;;;;1978844;28;2828336;-75
2023/06/12 06:21:01;;;;;;;;;17.67;15.67;;;;;;;;1978414;28;2817931;-75
2023/06/12 06:22:12;;;;;;;;;18.33;16.33;;;;;;;;1989032;28;3560698;-75
2023/06/12 06:23:25;;;;;;;;;23.60;19.20;;;;;;;;1984334;28;3571041;-75
2023/06/12 06:24:36;;;;;;;;;18.67;17.67;;;;;;;;1951764;28;3571148;-75
2023/06/12 06:25:47;;;;;;;;;18.00;17.40;;;;;;;;1992254;28;2840000;-75
2023/06/12 06:26:59;;;;;;;;;19.20;18.00;;;;;;;;2001151;28;3575190;-75
2023/06/12 06:28:10;;;;;;;;;21.80;19.00;;;;;;;;1992764;28;2834656;-75
2023/06/12 06:29:22;;;;;;;;;18.20;18.20;;;;;;;;2001014;28;3575186;-75
2023/06/12 06:30:34;;;;;;;;;16.80;16.80;;;;;;;;1999611;28;3558546;-75
2023/06/12 06:31:45;;;;;;;;;20.20;16.20;;;;;;;;1985413;28;2831553;-75
2023/06/12 06:32:56;;;;;;;;;20.20;18.60;;;;;;;;1999763;28;3572592;-75
2023/06/12 06:34:09;;;;;;;;;15.20;14.20;;;;;;;;2004008;28;3528686;-75
2023/06/12 06:35:20;;;;;;;;;16.50;15.00;;;;;;;;1982498;28;2823124;-75
2023/06/12 06:36:32;;;;;;;;;15.57;15.57;;;;;;;;1982117;28;3537810;-75
2023/06/12 06:37:44;;;;;;;;;16.00;15.00;;;;;;;;2005285;28;3529417;-76
2023/06/12 06:38:56;;;;;;;;;16.60;14.80;;;;;;;;2005738;28;3538765;-75
2023/06/12 06:40:12;;;;;;;;;17.20;14.60;;;;;;;;2004693;28;3552392;-75
2023/06/12 06:41:22;;;;;;;;;19.50;16.00;;;;;;;;1970795;28;2826285;-76
2023/06/12 06:42:34;;;;;;;;;21.60;16.20;;;;;;;;1972123;28;3564797;-76
2023/06/12 06:43:46;;;;;;;;;15.00;14.00;;;;;;;;1967665;28;3531502;-75
2023/06/12 06:44:58;;;;;;;;;15.33;14.33;;;;;;;;1993657;28;3547117;-75
2023/06/12 06:46:11;;;;;;;;;15.00;12.43;;;;;;;;1999847;28;2800231;-75
2023/06/12 06:47:21;;;;;;;;;12.00;12.00;;;;;;;;1987673;28;2804777;-75
2023/06/12 06:48:33;;;;;;;;;18.20;14.40;;;;;;;;2010174;28;3545509;-75